createdAt,value
2023-04-28T00:01:28.101Z,12.70
2023-04-28T00:04:24.588Z,12.70
2023-04-28T00:06:53.605Z,12.70
2023-04-28T00:09:22.717Z,12.70
2023-04-28T00:11:51.117Z,12.60
2023-04-28T00:14:21.854Z,12.60
2023-04-28T00:16:54.825Z,12.60
2023-04-28T00:19:25.548Z,12.60
2023-04-28T00:21:57.078Z,12.60
2023-04-28T00:24:25.148Z,12.60
2023-04-28T00:26:54.738Z,12.50
2023-04-28T00:29:26.274Z,12.60
2023-04-28T00:31:54.601Z,12.50
2023-04-28T00:34:40.261Z,12.50
2023-04-28T00:37:08.605Z,12.50
2023-04-28T00:39:58.243Z,12.50
2023-04-28T00:42:31.305Z,12.50
2023-04-28T00:45:07.953Z,12.50
2023-04-28T00:50:26.584Z,12.50
2023-04-28T00:52:56.709Z,12.50
2023-04-28T00:55:34.301Z,12.50
2023-04-28T00:58:31.266Z,12.40
2023-04-28T01:01:31.796Z,12.50
2023-04-28T01:04:25.802Z,12.40
2023-04-28T01:06:57.353Z,12.40
2023-04-28T01:09:56.088Z,12.40
2023-04-28T01:13:11.111Z,12.40
2023-04-28T01:15:44.650Z,12.40
2023-04-28T01:18:16.130Z,12.30
2023-04-28T01:20:46.980Z,12.40
2023-04-28T01:23:36.249Z,12.40
2023-04-28T01:26:11.548Z,12.30
2023-04-28T01:28:46.559Z,12.30
2023-04-28T01:31:17.916Z,12.30
2023-04-28T01:34:07.905Z,12.30
2023-04-28T01:36:37.788Z,12.30
2023-04-28T01:39:06.625Z,12.30
2023-04-28T01:42:05.909Z,12.30
2023-04-28T01:44:36.221Z,12.20
2023-04-28T01:47:12.281Z,12.20
2023-04-28T01:50:01.972Z,12.20
2023-04-28T01:52:33.404Z,12.20
2023-04-28T01:55:03.045Z,12.20
2023-04-28T01:57:53.788Z,12.20
2023-04-28T02:00:23.134Z,12.20
2023-04-28T02:02:51.831Z,12.20
2023-04-28T02:05:25.639Z,12.20
2023-04-28T02:08:14.429Z,12.20
2023-04-28T02:10:45.126Z,12.20
2023-04-28T02:13:35.844Z,12.10
2023-04-28T02:16:04.158Z,12.10
2023-04-28T02:18:37.140Z,12.10
2023-04-28T02:21:13.820Z,12.10
2023-04-28T02:23:59.794Z,12.10
2023-04-28T02:26:30.227Z,12.10
2023-04-28T02:29:24.887Z,12.10
2023-04-28T02:31:53.402Z,12.10
2023-04-28T02:34:29.226Z,12.10
2023-04-28T02:36:57.272Z,12.00
2023-04-28T02:39:27.102Z,12.00
2023-04-28T02:41:56.676Z,12.00
2023-04-28T02:44:31.667Z,12.00
2023-04-28T02:47:23.157Z,12.00
2023-04-28T02:49:55.743Z,12.00
2023-04-28T02:52:28.293Z,12.00
2023-04-28T02:55:26.733Z,12.00
2023-04-28T02:57:59.452Z,12.00
2023-04-28T03:00:53.454Z,12.00
2023-04-28T03:03:43.416Z,12.00
2023-04-28T03:06:18.394Z,12.00
2023-04-28T03:08:50.067Z,12.00
2023-04-28T03:11:19.967Z,12.00
2023-04-28T03:13:49.152Z,12.00
2023-04-28T03:16:26.688Z,12.00
2023-04-28T03:18:54.798Z,12.00
2023-04-28T03:21:27.843Z,11.90
2023-04-28T03:23:55.977Z,12.00
2023-04-28T03:26:23.993Z,11.90
2023-04-28T03:28:51.931Z,11.90
2023-04-28T03:31:22.443Z,11.90
2023-04-28T03:33:59.849Z,11.90
2023-04-28T03:36:31.177Z,11.90
2023-04-28T03:39:24.247Z,11.90
2023-04-28T03:41:53.423Z,11.90
2023-04-28T03:44:26.012Z,11.90
2023-04-28T03:47:01.967Z,11.90
2023-04-28T03:49:52.134Z,11.90
2023-04-28T03:52:24.144Z,11.90
2023-04-28T03:55:33.455Z,11.90
2023-04-28T03:58:05.990Z,11.90
2023-04-28T04:00:57.292Z,11.80
2023-04-28T04:03:31.944Z,11.80
2023-04-28T04:06:00.784Z,11.80
2023-04-28T04:08:33.322Z,11.80
2023-04-28T04:11:03.354Z,11.80
2023-04-28T04:13:32.811Z,11.80
2023-04-28T04:16:02.563Z,11.80
2023-04-28T04:18:32.998Z,11.80
2023-04-28T04:21:04.747Z,11.80
2023-04-28T04:23:34.155Z,11.80
2023-04-28T04:26:08.580Z,11.80
2023-04-28T04:28:42.218Z,11.80
2023-04-28T04:31:11.309Z,11.80
2023-04-28T04:33:41.201Z,11.80
2023-04-28T04:36:11.508Z,11.80
2023-04-28T04:38:45.756Z,11.80
2023-04-28T04:41:13.920Z,11.80
2023-04-28T04:43:43.680Z,11.80
2023-04-28T04:46:11.670Z,11.80
2023-04-28T04:48:41.072Z,11.90
2023-04-28T04:51:09.051Z,11.90
2023-04-28T04:53:37.046Z,11.90
2023-04-28T04:56:05.383Z,11.90
2023-04-28T04:58:33.688Z,11.80
2023-04-28T05:01:01.704Z,11.80
2023-04-28T05:03:29.869Z,11.90
2023-04-28T05:05:59.388Z,11.90
2023-04-28T05:08:27.439Z,11.90
2023-04-28T05:10:55.439Z,11.90
2023-04-28T05:13:23.357Z,11.90
2023-04-28T05:15:51.312Z,11.90
2023-04-28T05:18:19.246Z,11.90
2023-04-28T05:20:47.313Z,11.80
2023-04-28T05:23:16.760Z,11.80
2023-04-28T05:25:44.978Z,11.80
2023-04-28T05:28:13.540Z,11.70
2023-04-28T05:30:41.536Z,11.70
2023-04-28T05:33:09.539Z,11.70
2023-04-28T05:35:37.503Z,11.60
2023-04-28T05:38:06.885Z,11.60
2023-04-28T05:40:36.242Z,11.60
2023-04-28T05:43:04.227Z,11.60
2023-04-28T05:45:32.354Z,11.50
2023-04-28T05:48:00.525Z,11.50
2023-04-28T05:50:28.629Z,11.50
2023-04-28T05:52:56.537Z,11.50
2023-04-28T05:55:24.501Z,11.50
2023-04-28T05:57:55.493Z,11.50
2023-04-28T06:00:23.508Z,11.50
2023-04-28T06:02:51.922Z,11.50
2023-04-28T06:05:20.137Z,11.50
2023-04-28T06:07:50.092Z,11.50
2023-04-28T06:10:18.531Z,11.60
2023-04-28T06:12:46.888Z,11.50
2023-04-28T06:15:16.347Z,11.50
2023-04-28T06:17:44.410Z,11.60
2023-04-28T06:20:14.423Z,11.60
2023-04-28T06:22:43.103Z,11.60
2023-04-28T06:25:11.283Z,11.60
2023-04-28T06:27:39.848Z,11.70
2023-04-28T06:30:09.109Z,11.70
2023-04-28T06:32:38.625Z,11.70
2023-04-28T06:35:07.683Z,11.70
2023-04-28T06:37:35.980Z,11.80
2023-04-28T06:40:04.011Z,11.80
2023-04-28T06:42:32.168Z,11.90
2023-04-28T06:45:00.145Z,11.90
2023-04-28T06:47:28.421Z,12.00
2023-04-28T06:49:57.746Z,12.00
2023-04-28T06:52:36.799Z,12.00
2023-04-28T06:55:09.296Z,12.10
2023-04-28T06:57:37.863Z,12.10
2023-04-28T07:00:08.048Z,12.20
2023-04-28T07:02:37.060Z,12.20
2023-04-28T07:05:07.134Z,12.20
2023-04-28T07:07:35.209Z,12.30
2023-04-28T07:10:03.230Z,12.40
2023-04-28T07:12:31.233Z,12.30
2023-04-28T07:14:59.568Z,12.40
2023-04-28T07:17:27.650Z,12.40
2023-04-28T07:19:55.658Z,12.50
2023-04-28T07:22:25.252Z,12.50
2023-04-28T07:24:53.824Z,12.60
2023-04-28T07:27:21.787Z,12.60
2023-04-28T07:29:49.823Z,12.60
2023-04-28T07:32:18.050Z,12.70
2023-04-28T07:34:46.441Z,12.70
2023-04-28T07:37:14.463Z,12.70
2023-04-28T07:39:43.837Z,12.80
2023-04-28T07:42:11.831Z,12.80
2023-04-28T07:44:39.806Z,12.80
2023-04-28T07:47:07.830Z,12.80
2023-04-28T07:49:35.879Z,12.90
2023-04-28T07:52:03.971Z,12.90
2023-04-28T07:54:31.972Z,12.90
2023-04-28T07:57:01.499Z,12.90
2023-04-28T07:59:29.418Z,13.00
2023-04-28T08:01:57.405Z,13.00
2023-04-28T08:04:26.171Z,13.00
2023-04-28T08:06:54.899Z,13.10
2023-04-28T08:09:23.023Z,13.10
2023-04-28T08:11:51.242Z,13.10
2023-04-28T08:14:21.990Z,13.10
2023-04-28T08:16:49.922Z,13.20
2023-04-28T08:19:18.098Z,13.20
2023-04-28T08:21:46.285Z,13.20
2023-04-28T08:24:14.753Z,13.20
2023-04-28T08:26:42.896Z,13.20
2023-04-28T08:29:10.824Z,13.30
2023-04-28T08:31:40.215Z,13.20
2023-04-28T08:34:08.368Z,13.30
2023-04-28T08:36:36.406Z,13.30
2023-04-28T08:39:07.820Z,13.30
2023-04-28T08:41:40.384Z,13.40
2023-04-28T08:44:10.519Z,13.40
2023-04-28T08:46:42.909Z,13.40
2023-04-28T08:49:15.712Z,13.50
2023-04-28T08:51:47.703Z,13.60
2023-04-28T08:54:26.059Z,13.60
2023-04-28T08:56:55.457Z,13.60
2023-04-28T08:59:26.178Z,13.70
2023-04-28T09:01:56.952Z,13.70
2023-04-28T09:04:25.428Z,13.80
2023-04-28T09:06:53.745Z,13.80
2023-04-28T09:09:22.919Z,13.90
2023-04-28T09:11:59.269Z,13.90
2023-04-28T09:14:27.851Z,14.00
2023-04-28T09:16:57.774Z,14.00
2023-04-28T09:19:25.969Z,14.00
2023-04-28T09:21:55.723Z,14.10
2023-04-28T09:24:31.037Z,14.10
2023-04-28T09:26:59.206Z,14.20
2023-04-28T09:29:27.562Z,14.30
2023-04-28T09:32:14.255Z,14.30
2023-04-28T09:34:47.389Z,14.30
2023-04-28T09:37:20.236Z,14.40
2023-04-28T09:39:49.715Z,14.40
2023-04-28T09:42:34.699Z,14.40
2023-04-28T09:45:03.668Z,14.50
2023-04-28T09:47:35.150Z,14.50
2023-04-28T09:50:06.324Z,14.40
2023-04-28T09:52:35.322Z,14.50
2023-04-28T09:55:04.519Z,14.50
2023-04-28T09:57:33.878Z,14.50
2023-04-28T10:00:05.810Z,14.60
2023-04-28T10:05:09.662Z,14.60
2023-04-28T10:07:40.110Z,14.60
2023-04-28T10:10:08.841Z,14.60
2023-04-28T10:12:38.631Z,14.60
2023-04-28T10:15:08.554Z,14.50
2023-04-28T10:17:38.311Z,14.50
2023-04-28T10:20:08.695Z,14.50
2023-04-28T10:22:53.717Z,14.50
2023-04-28T10:25:31.153Z,14.50
2023-04-28T10:28:00.405Z,14.50
2023-04-28T10:30:30.176Z,14.50
2023-04-28T10:33:34.548Z,14.50
2023-04-28T10:36:04.340Z,14.50
2023-04-28T10:38:32.323Z,14.50
2023-04-28T10:41:02.755Z,14.50
2023-04-28T10:43:40.544Z,14.50
2023-04-28T10:46:11.967Z,14.50
2023-04-28T10:48:58.683Z,14.40
2023-04-28T10:51:33.472Z,14.50
2023-04-28T10:54:20.486Z,14.40
2023-04-28T10:57:18.181Z,14.50
2023-04-28T10:59:46.238Z,14.40
2023-04-28T11:02:43.637Z,14.40
2023-04-28T11:05:14.908Z,14.40
2023-04-28T11:08:31.376Z,14.40
2023-04-28T11:11:25.873Z,14.40
2023-04-28T11:13:55.467Z,14.50
2023-04-28T11:16:25.875Z,14.50
2023-04-28T11:19:07.187Z,14.50
2023-04-28T11:21:35.183Z,14.50
2023-04-28T11:24:11.107Z,14.50
2023-04-28T11:26:39.465Z,14.50
2023-04-28T11:29:07.649Z,14.50
2023-04-28T11:31:35.730Z,14.50
2023-04-28T11:34:06.773Z,14.50
2023-04-28T11:36:37.038Z,14.60
2023-04-28T11:39:08.323Z,14.60
2023-04-28T11:41:36.740Z,14.60
2023-04-28T11:44:11.812Z,14.60
2023-04-28T11:46:47.707Z,14.50
2023-04-28T11:49:16.037Z,14.50
2023-04-28T11:51:45.912Z,14.50
2023-04-28T11:54:15.205Z,14.50
2023-04-28T11:56:44.956Z,14.50
2023-04-28T11:59:20.668Z,14.50
2023-04-28T12:01:50.659Z,14.60
2023-04-28T12:04:29.060Z,14.60
2023-04-28T12:07:01.697Z,14.70
2023-04-28T12:09:31.415Z,14.70
2023-04-28T12:12:02.412Z,14.80
2023-04-28T12:14:32.148Z,14.70
2023-04-28T12:17:00.176Z,14.80
2023-04-28T12:19:28.418Z,14.80
2023-04-28T12:22:07.385Z,14.80
2023-04-28T12:24:37.013Z,14.80
2023-04-28T12:27:21.542Z,14.80
2023-04-28T12:29:49.814Z,14.80
2023-04-28T12:32:18.661Z,14.80
2023-04-28T12:34:47.674Z,14.80
2023-04-28T12:37:16.052Z,14.80
2023-04-28T12:39:45.841Z,14.90
2023-04-28T12:42:14.063Z,14.90
2023-04-28T12:44:42.185Z,14.90
2023-04-28T12:47:12.189Z,14.90
2023-04-28T12:49:41.374Z,14.90
2023-04-28T12:52:09.619Z,14.90
2023-04-28T12:54:38.019Z,14.90
2023-04-28T12:57:07.496Z,14.90
2023-04-28T12:59:35.454Z,14.90
2023-04-28T13:02:03.517Z,14.80
2023-04-28T13:04:32.397Z,14.90
2023-04-28T13:07:02.481Z,14.90
2023-04-28T13:09:30.574Z,14.90
2023-04-28T13:11:58.712Z,14.90
2023-04-28T13:14:29.369Z,14.90
2023-04-28T13:16:58.340Z,14.80
2023-04-28T13:19:27.741Z,14.90
2023-04-28T13:21:55.738Z,14.90
2023-04-28T13:24:23.724Z,14.80
2023-04-28T13:26:53.094Z,14.90
2023-04-28T13:29:22.314Z,14.90
2023-04-28T13:31:51.718Z,14.90
2023-04-28T13:34:19.845Z,14.90
2023-04-28T13:36:50.878Z,14.90
2023-04-28T13:39:20.362Z,15.00
2023-04-28T13:41:48.945Z,15.00
2023-04-28T13:44:17.344Z,15.00
2023-04-28T13:46:46.109Z,15.00
2023-04-28T13:49:15.588Z,15.00
2023-04-28T13:51:45.578Z,15.00
2023-04-28T13:54:13.679Z,15.00
2023-04-28T13:56:41.909Z,15.00
2023-04-28T13:59:09.874Z,15.00
2023-04-28T14:01:37.981Z,15.10
2023-04-28T14:04:06.752Z,15.00
2023-04-28T14:06:37.237Z,15.00
2023-04-28T14:09:27.077Z,15.00
2023-04-28T14:11:56.889Z,15.00
2023-04-28T14:14:24.918Z,15.00
2023-04-28T14:16:52.897Z,15.00
2023-04-28T14:19:21.227Z,15.00
2023-04-28T14:21:50.603Z,15.00
2023-04-28T14:24:18.716Z,15.00
2023-04-28T14:26:47.253Z,15.00
2023-04-28T14:29:15.317Z,15.00
2023-04-28T14:31:43.595Z,15.00
2023-04-28T14:34:13.267Z,15.00
2023-04-28T14:36:42.254Z,15.00
2023-04-28T14:39:12.249Z,15.00
2023-04-28T14:41:41.713Z,15.00
2023-04-28T14:44:09.717Z,14.90
2023-04-28T14:46:37.940Z,14.90
2023-04-28T14:49:06.225Z,14.90
2023-04-28T14:51:34.154Z,14.90
2023-04-28T14:54:03.498Z,14.90
2023-04-28T14:56:33.871Z,14.90
2023-04-28T14:59:02.045Z,14.90
2023-04-28T15:01:31.001Z,14.90
2023-04-28T15:04:00.412Z,14.90
2023-04-28T15:06:29.743Z,14.90
2023-04-28T15:08:57.844Z,14.90
2023-04-28T15:11:25.903Z,14.90
2023-04-28T15:13:55.270Z,14.90
2023-04-28T15:16:23.705Z,14.90
2023-04-28T15:18:51.644Z,14.90
2023-04-28T15:21:19.572Z,14.90
2023-04-28T15:23:47.645Z,14.90
2023-04-28T15:26:15.910Z,14.90
2023-04-28T15:28:43.859Z,14.90
2023-04-28T15:31:13.348Z,14.80
2023-04-28T15:33:41.421Z,14.80
2023-04-28T15:36:09.688Z,14.90
2023-04-28T15:38:38.482Z,14.80
2023-04-28T15:41:06.822Z,14.90
2023-04-28T15:43:34.797Z,14.90
2023-04-28T15:46:04.226Z,14.80
2023-04-28T15:48:33.574Z,14.80
2023-04-28T15:51:01.950Z,14.80
2023-04-28T15:53:29.970Z,14.80
2023-04-28T15:55:58.796Z,14.80
2023-04-28T15:58:27.412Z,14.80
2023-04-28T16:00:55.397Z,14.80
2023-04-28T16:03:23.518Z,14.80
2023-04-28T16:05:54.491Z,14.80
2023-04-28T16:08:24.515Z,14.80
2023-04-28T16:10:52.820Z,14.90
2023-04-28T16:13:21.098Z,14.80
2023-04-28T16:15:51.357Z,14.80
2023-04-28T16:18:19.478Z,14.80
2023-04-28T16:20:47.723Z,14.80
2023-04-28T16:23:22.417Z,14.70
2023-04-28T16:25:50.864Z,14.70
2023-04-28T16:28:18.968Z,14.70
2023-04-28T16:30:47.842Z,14.70
2023-04-28T16:33:16.138Z,14.70
2023-04-28T16:35:44.322Z,14.70
2023-04-28T16:38:13.416Z,14.70
2023-04-28T16:40:42.839Z,14.60
2023-04-28T16:43:10.873Z,14.70
2023-04-28T16:45:38.880Z,14.70
2023-04-28T16:48:06.941Z,14.60
2023-04-28T16:50:35.415Z,14.60
2023-04-28T16:53:04.180Z,14.60
2023-04-28T16:55:32.291Z,14.60
2023-04-28T16:58:01.588Z,14.50
2023-04-28T17:00:30.161Z,14.50
2023-04-28T17:02:58.556Z,14.40
2023-04-28T17:05:26.684Z,14.40
2023-04-28T17:07:55.309Z,14.40
2023-04-28T17:10:23.379Z,14.30
2023-04-28T17:12:51.381Z,14.30
2023-04-28T17:15:20.720Z,14.30
2023-04-28T17:17:52.088Z,14.20
2023-04-28T17:20:21.633Z,14.10
2023-04-28T17:22:50.230Z,14.10
2023-04-28T17:25:18.475Z,14.00
2023-04-28T17:27:46.916Z,14.00
2023-04-28T17:30:15.194Z,14.00
2023-04-28T17:32:44.737Z,13.90
2023-04-28T17:35:12.770Z,13.90
2023-04-28T17:37:40.797Z,13.80
2023-04-28T17:40:10.295Z,13.80
2023-04-28T17:42:40.592Z,13.80
2023-04-28T17:45:10.134Z,13.80
2023-04-28T17:47:38.250Z,13.70
2023-04-28T17:50:10.662Z,13.70
2023-04-28T17:52:39.671Z,13.60
2023-04-28T17:55:08.938Z,13.60
2023-04-28T17:57:37.010Z,13.60
2023-04-28T18:00:05.689Z,13.50
2023-04-28T18:02:33.900Z,13.60
2023-04-28T18:05:02.488Z,13.60
2023-04-28T18:07:31.996Z,13.60
2023-04-28T18:10:00.404Z,13.60
2023-04-28T18:12:29.543Z,13.70
2023-04-28T18:14:58.870Z,13.70
2023-04-28T18:17:27.534Z,13.60
2023-04-28T18:19:56.801Z,13.60
2023-04-28T18:22:26.134Z,13.60
2023-04-28T18:24:56.200Z,13.60
2023-04-28T18:27:29.928Z,13.50
2023-04-28T18:29:58.478Z,13.50
2023-04-28T18:32:30.334Z,13.50
2023-04-28T18:34:58.658Z,13.50
2023-04-28T18:37:28.677Z,13.40
2023-04-28T18:39:59.243Z,13.40
2023-04-28T18:42:32.679Z,13.40
2023-04-28T18:45:02.171Z,13.30
2023-04-28T18:47:33.180Z,13.30
2023-04-28T18:50:02.505Z,13.30
2023-04-28T18:52:32.417Z,13.20
2023-04-28T18:55:02.099Z,13.30
2023-04-28T18:57:37.878Z,13.20
2023-04-28T19:00:07.424Z,13.20
2023-04-28T19:02:37.561Z,13.20
2023-04-28T19:05:06.727Z,13.10
2023-04-28T19:07:36.406Z,13.10
2023-04-28T19:10:07.171Z,13.10
2023-04-28T19:12:37.348Z,13.10
2023-04-28T19:15:09.081Z,13.10
2023-04-28T19:17:39.497Z,13.10
2023-04-28T19:20:10.522Z,13.00
2023-04-28T19:22:41.011Z,13.00
2023-04-28T19:25:11.142Z,13.00
2023-04-28T19:27:40.873Z,12.90
2023-04-28T19:30:11.435Z,12.90
2023-04-28T19:33:00.155Z,12.80
2023-04-28T19:35:28.516Z,12.80
2023-04-28T19:37:56.718Z,12.80
2023-04-28T19:40:30.623Z,12.70
2023-04-28T19:43:01.146Z,12.80
2023-04-28T19:45:29.310Z,12.80
2023-04-28T19:48:00.898Z,12.70
2023-04-28T19:50:29.152Z,12.80
2023-04-28T19:52:57.848Z,12.80
2023-04-28T19:55:27.927Z,12.80
2023-04-28T19:58:01.126Z,12.80
2023-04-28T20:00:32.317Z,12.70
2023-04-28T20:03:22.728Z,12.80
2023-04-28T20:05:51.369Z,12.70
2023-04-28T20:08:20.657Z,12.70
2023-04-28T20:10:51.138Z,12.70
2023-04-28T20:13:24.103Z,12.70
2023-04-28T20:16:12.907Z,12.80
2023-04-28T20:18:42.106Z,12.70
2023-04-28T20:21:10.903Z,12.70
2023-04-28T20:23:43.605Z,12.60
2023-04-28T20:26:15.966Z,12.60
2023-04-28T20:28:46.822Z,12.60
2023-04-28T20:31:19.326Z,12.60
2023-04-28T20:34:11.600Z,12.50
2023-04-28T20:36:43.219Z,12.40
2023-04-28T20:39:17.381Z,12.40
2023-04-28T20:41:48.345Z,12.40
2023-04-28T20:44:22.177Z,12.30
2023-04-28T20:46:53.196Z,12.30
2023-04-28T20:49:22.092Z,12.30
2023-04-28T20:52:12.332Z,12.30
2023-04-28T20:54:48.224Z,12.30
2023-04-28T20:57:18.985Z,12.30
2023-04-28T21:00:10.847Z,12.30
2023-04-28T21:03:06.893Z,12.20
2023-04-28T21:05:35.895Z,12.20
2023-04-28T21:08:07.156Z,12.20
2023-04-28T21:10:36.955Z,12.20
2023-04-28T21:13:11.411Z,12.10
2023-04-28T21:15:40.034Z,12.10
2023-04-28T21:18:08.724Z,12.10
2023-04-28T21:20:39.063Z,12.00
2023-04-28T21:23:08.873Z,12.00
2023-04-28T21:25:37.885Z,12.00
2023-04-28T21:28:10.126Z,12.00
2023-04-28T21:30:39.082Z,12.00
2023-04-28T21:33:08.248Z,12.00
2023-04-28T21:35:37.309Z,12.00
2023-04-28T21:38:05.822Z,12.00
2023-04-28T21:40:34.630Z,12.00
2023-04-28T21:43:03.757Z,11.90
2023-04-28T21:45:33.942Z,11.90
2023-04-28T21:48:22.486Z,11.90
2023-04-28T21:50:51.003Z,11.80
2023-04-28T21:53:27.653Z,11.80
2023-04-28T21:55:58.704Z,11.80
2023-04-28T21:58:46.742Z,11.80
2023-04-28T22:01:18.636Z,11.80
2023-04-28T22:03:48.736Z,11.80
2023-04-28T22:06:17.846Z,11.80
2023-04-28T22:08:51.711Z,11.80
2023-04-28T22:11:19.969Z,11.70
2023-04-28T22:13:51.850Z,11.80
2023-04-28T22:16:42.567Z,11.80
2023-04-28T22:19:10.825Z,11.70
2023-04-28T22:22:00.363Z,11.80
2023-04-28T22:24:28.798Z,11.80
2023-04-28T22:26:58.234Z,11.80
2023-04-28T22:29:26.927Z,11.80
2023-04-28T22:32:08.353Z,11.80
2023-04-28T22:34:39.241Z,11.80
2023-04-28T22:37:07.649Z,11.80
2023-04-28T22:39:35.797Z,11.80
2023-04-28T22:42:08.633Z,11.80
2023-04-28T22:44:38.313Z,11.90
2023-04-28T22:47:08.160Z,11.90
2023-04-28T22:49:40.786Z,11.90
2023-04-28T22:52:09.185Z,11.80
2023-04-28T22:54:41.127Z,11.90
2023-04-28T22:57:09.162Z,11.90
2023-04-28T22:59:37.688Z,11.90
2023-04-28T23:02:09.052Z,11.90
2023-04-28T23:04:38.517Z,11.90
2023-04-28T23:07:11.191Z,11.90
2023-04-28T23:09:40.058Z,11.90
2023-04-28T23:12:08.403Z,11.90
2023-04-28T23:14:38.982Z,11.90
2023-04-28T23:17:08.498Z,11.90
2023-04-28T23:19:56.459Z,11.90
2023-04-28T23:22:44.892Z,11.90
2023-04-28T23:25:15.950Z,11.90
2023-04-28T23:27:46.409Z,11.90
2023-04-28T23:30:15.245Z,11.90
2023-04-28T23:32:46.163Z,11.90
2023-04-28T23:35:15.499Z,11.80
2023-04-28T23:37:43.711Z,11.80
2023-04-28T23:40:13.921Z,11.80
2023-04-28T23:42:42.585Z,11.80
2023-04-28T23:45:34.540Z,11.80
2023-04-28T23:48:04.386Z,11.70
2023-04-28T23:50:32.579Z,11.70
2023-04-28T23:53:03.685Z,11.70
2023-04-28T23:55:32.015Z,11.70
2023-04-28T23:58:02.774Z,11.80
